CheckWX is a tool to help pilots better visualize weather data.  It is not intended as a substitute for an official pre-flight weather briefing.

20:26:41 UTC

HSNN METAR
Nyala Airport
Nyala, Sudan
Current

27 mins ago

HSNN 202000Z 06006KT CAVOK 31/01 Q1011
Observed
Apr-20 @ 20:00 UTC
Wind
  • 060° at 6 KTS
Visibility
10,000+ meters
Flight Rules
VFR
Cloud Levels
  • Clear skies
Temperature
31°C / 88°F
Dewpoint
C / 34°F
Humidity
15%
Altimeter
29.85" Hg
Pressure
1010.92 hPa
Previous

1 hour ago

HSNN 201900Z 07006KT CAVOK 31/01 Q1010
Observed
Apr-20 @ 19:00 UTC
Wind
  • 070° at 6 KTS
Visibility
10,000+ meters
Flight Rules
VFR
Cloud Levels
  • Clear skies
Temperature
31°C / 88°F
Dewpoint
C / 34°F
Humidity
15%
Altimeter
29.82" Hg
Pressure
1009.92 hPa
Previous

15 hours ago

HSNN 200500Z 36010KT CAVOK 26/M08 Q1012
Observed
Apr-20 @ 05:00 UTC
Wind
  • 360° at 10 KTS
Visibility
10,000+ meters
Flight Rules
VFR
Cloud Levels
  • Clear skies
Temperature
26°C / 79°F
Dewpoint
-8°C / 18°F
Humidity
10%
Altimeter
29.88" Hg
Pressure
1011.92 hPa